Time;durP1;ratioP1;P1;durP2;ratioP2;P2;SDS_P1;SDS_P2;PMS_P1;PMS_P2;Temp;Humidity;BMP_temperature;BMP_pressure;BME280_temperature;BME280_humidity;BME280_pressure;Samples;Min_cycle;Max_cycle;Signal;HPM_P1;HPM_P2
2021/01/25 00:01:40;;;;;;;30.92;21.45;;;-0.10;99.90;;;;;;4128657;28;20219;-77
2021/01/25 00:03:40;;;;;;;44.35;25.55;;;-0.10;99.90;;;;;;4128905;28;20354;-76
2021/01/25 00:05:41;;;;;;;39.92;27.33;;;-0.10;99.90;;;;;;4128408;28;20363;-76
2021/01/25 00:07:41;;;;;;;33.90;20.42;;;0.00;99.90;;;;;;4131177;28;20034;-76
2021/01/25 00:09:42;;;;;;;33.95;20.15;;;0.00;99.90;;;;;;4129577;28;20071;-76
2021/01/25 00:11:42;;;;;;;29.52;20.58;;;0.00;99.90;;;;;;4129453;28;20026;-76
2021/01/25 00:13:43;;;;;;;25.80;16.92;;;-0.10;99.90;;;;;;4129969;28;20482;-76
2021/01/25 00:15:47;;;;;;;34.58;21.52;;;-0.10;99.90;;;;;;4128570;28;20030;-76
2021/01/25 00:17:48;;;;;;;30.20;20.10;;;0.00;99.90;;;;;;4128614;28;20030;-77
2021/01/25 00:19:48;;;;;;;39.58;23.35;;;0.00;99.90;;;;;;4128437;28;20069;-77
2021/01/25 00:21:49;;;;;;;36.28;24.45;;;0.00;99.90;;;;;;4129153;28;20030;-76
2021/01/25 00:23:50;;;;;;;35.00;20.88;;;0.00;99.90;;;;;;4160450;28;20044;-77
2021/01/25 00:25:50;;;;;;;54.17;32.42;;;0.00;99.90;;;;;;4129763;28;20470;-77
2021/01/25 00:27:51;;;;;;;35.42;21.27;;;0.00;99.90;;;;;;4144725;28;20068;-77
2021/01/25 00:29:51;;;;;;;32.75;20.83;;;0.00;99.90;;;;;;4160620;28;20048;-77
2021/01/25 00:31:54;;;;;;;28.98;19.65;;;0.10;99.90;;;;;;4128472;28;20030;-77
2021/01/25 00:33:54;;;;;;;33.28;20.42;;;0.10;99.90;;;;;;4121366;28;20253;-76
2021/01/25 00:35:55;;;;;;;29.35;20.17;;;0.10;99.90;;;;;;4129547;28;20554;-77
2021/01/25 00:37:56;;;;;;;27.90;20.13;;;0.10;99.90;;;;;;4129634;28;20121;-77
2021/01/25 00:39:56;;;;;;;30.73;20.23;;;0.10;99.90;;;;;;4129823;28;20058;-78
2021/01/25 00:41:57;;;;;;;35.53;19.25;;;0.10;99.90;;;;;;4144177;28;20041;-77
2021/01/25 00:43:58;;;;;;;38.60;22.95;;;0.00;99.90;;;;;;4114512;28;20117;-77
2021/01/25 00:45:58;;;;;;;31.20;21.35;;;0.10;99.90;;;;;;4129644;28;20030;-78
2021/01/25 00:47:59;;;;;;;32.95;21.13;;;0.10;99.90;;;;;;4128635;28;20029;-78
2021/01/25 00:50:00;;;;;;;32.42;19.55;;;0.10;99.90;;;;;;4128114;28;20038;-77
2021/01/25 00:52:01;;;;;;;30.90;21.23;;;0.10;99.90;;;;;;4111433;28;20406;-77
2021/01/25 00:54:01;;;;;;;26.80;18.98;;;0.10;99.90;;;;;;4127866;28;20026;-77
2021/01/25 00:56:02;;;;;;;31.20;19.60;;;0.00;99.90;;;;;;4110967;28;20158;-77
2021/01/25 00:58:03;;;;;;;29.48;18.45;;;0.10;99.90;;;;;;4111602;28;20029;-77
2021/01/25 01:00:08;;;;;;;29.08;17.50;;;0.00;99.90;;;;;;4111953;28;20026;-77
2021/01/25 01:02:09;;;;;;;25.05;18.27;;;0.00;99.90;;;;;;4111757;28;20026;-78
2021/01/25 01:04:10;;;;;;;27.08;17.67;;;0.00;99.90;;;;;;4110582;28;20022;-77
2021/01/25 01:06:10;;;;;;;25.52;18.52;;;0.00;99.90;;;;;;4110752;28;20023;-77
2021/01/25 01:08:11;;;;;;;28.55;19.23;;;0.00;99.90;;;;;;4111744;28;20027;-77
2021/01/25 01:10:13;;;;;;;28.15;18.05;;;0.00;99.90;;;;;;4112004;28;20047;-77
2021/01/25 01:12:14;;;;;;;30.58;19.23;;;0.00;99.90;;;;;;4111523;28;20642;-77
2021/01/25 01:14:14;;;;;;;31.27;19.95;;;-0.10;99.90;;;;;;4111770;28;20160;-77
2021/01/25 01:16:15;;;;;;;28.88;19.05;;;-0.10;99.90;;;;;;4111858;28;20035;-78
2021/01/25 01:18:15;;;;;;;33.03;19.58;;;-0.20;99.90;;;;;;4110049;28;20042;-78
2021/01/25 01:20:16;;;;;;;33.33;19.50;;;-0.20;99.90;;;;;;4110391;28;20089;-77
2021/01/25 01:22:16;;;;;;;30.30;19.05;;;-0.30;99.90;;;;;;4126511;28;20035;-78
2021/01/25 01:24:17;;;;;;;39.03;20.27;;;-0.30;99.90;;;;;;4111447;28;20023;-78
2021/01/25 01:26:19;;;;;;;28.30;18.58;;;-0.30;99.90;;;;;;4110574;28;20035;-77
2021/01/25 01:28:19;;;;;;;31.95;20.17;;;-0.30;99.90;;;;;;4112712;28;20027;-78
2021/01/25 01:30:20;;;;;;;36.47;19.55;;;-0.30;99.90;;;;;;4095034;28;20480;-78
2021/01/25 01:32:21;;;;;;;36.53;21.25;;;-0.30;99.90;;;;;;4098057;28;20043;-77
2021/01/25 01:34:21;;;;;;;37.78;21.60;;;-0.30;99.90;;;;;;4100917;28;20034;-78
2021/01/25 01:36:22;;;;;;;32.65;20.00;;;-0.30;99.90;;;;;;4102154;28;20028;-78
2021/01/25 01:38:22;;;;;;;33.42;21.08;;;-0.20;99.90;;;;;;4100571;28;20034;-78
2021/01/25 01:40:23;;;;;;;30.20;20.73;;;-0.20;99.90;;;;;;4101354;28;20410;-77
2021/01/25 01:42:23;;;;;;;37.17;22.00;;;-0.10;99.90;;;;;;4103262;28;20386;-78
2021/01/25 01:44:24;;;;;;;33.47;19.55;;;0.00;99.90;;;;;;4101919;28;20031;-77
2021/01/25 01:46:24;;;;;;;33.33;20.40;;;0.00;99.90;;;;;;4100474;28;20034;-78
2021/01/25 01:48:25;;;;;;;34.33;19.80;;;0.00;99.90;;;;;;4102415;28;20118;-78
2021/01/25 01:50:28;;;;;;;28.25;19.55;;;0.00;99.90;;;;;;4103092;28;20039;-78
2021/01/25 01:52:29;;;;;;;29.08;20.05;;;0.00;99.90;;;;;;4105995;28;20086;-78
2021/01/25 01:54:31;;;;;;;31.77;20.73;;;0.00;99.90;;;;;;4102041;28;20082;-77
2021/01/25 01:56:33;;;;;;;29.00;19.33;;;0.00;99.90;;;;;;4115866;28;20031;-77
2021/01/25 01:58:34;;;;;;;32.95;18.65;;;0.00;99.90;;;;;;4115387;28;20026;-77
2021/01/25 02:00:34;;;;;;;31.88;20.15;;;0.00;99.90;;;;;;4116004;28;20030;-76
2021/01/25 02:02:35;;;;;;;31.75;18.52;;;-0.10;99.90;;;;;;4114369;28;20110;-76
2021/01/25 02:04:35;;;;;;;31.25;19.30;;;-0.10;99.90;;;;;;4114195;28;20035;-77
2021/01/25 02:06:36;;;;;;;28.45;18.88;;;-0.10;99.90;;;;;;4115895;28;20097;-77
2021/01/25 02:08:39;;;;;;;35.90;19.55;;;-0.10;99.90;;;;;;4114415;28;20026;-77
2021/01/25 02:10:40;;;;;;;34.72;20.33;;;-0.10;99.90;;;;;;4114541;28;20118;-76
2021/01/25 02:12:42;;;;;;;36.67;19.65;;;-0.10;99.90;;;;;;4115673;28;20498;-77
2021/01/25 02:14:45;;;;;;;36.90;21.42;;;0.00;99.90;;;;;;4115572;28;20027;-76
2021/01/25 02:16:45;;;;;;;36.47;20.92;;;0.00;99.90;;;;;;4114184;28;20422;-77
2021/01/25 02:18:46;;;;;;;37.50;22.83;;;0.00;99.90;;;;;;4115530;28;20027;-77
2021/01/25 02:20:46;;;;;;;35.85;21.08;;;0.00;99.90;;;;;;4114185;28;20027;-77
2021/01/25 02:23:28;;;;;;;33.58;19.88;;;0.10;99.90;;;;;;4115677;28;20027;-77
2021/01/25 02:25:38;;;;;;;34.83;21.27;;;0.00;99.90;;;;;;4105451;28;20029;-77
2021/01/25 02:27:42;;;;;;;38.97;22.20;;;0.00;99.90;;;;;;4114486;28;20082;-77
2021/01/25 02:29:44;;;;;;;35.95;22.80;;;0.00;99.90;;;;;;4115536;28;20106;-77
2021/01/25 02:31:46;;;;;;;38.78;22.25;;;-0.10;99.90;;;;;;4115557;28;20367;-77
2021/01/25 02:33:51;;;;;;;38.03;23.58;;;-0.20;99.90;;;;;;4096796;28;20020;-77
2021/01/25 02:35:53;;;;;;;35.58;21.23;;;-0.20;99.90;;;;;;4115339;28;20035;-77
2021/01/25 02:37:55;;;;;;;42.80;24.20;;;-0.30;99.90;;;;;;4115486;28;20081;-77
2021/01/25 02:39:57;;;;;;;37.55;22.80;;;-0.30;99.90;;;;;;4107618;28;20030;-77
2021/01/25 02:42:00;;;;;;;37.15;22.98;;;-0.30;99.90;;;;;;4099046;28;20046;-78
2021/01/25 02:44:03;;;;;;;40.65;23.33;;;-0.30;99.90;;;;;;4098291;28;20031;-78
2021/01/25 02:46:05;;;;;;;34.50;23.05;;;-0.30;99.90;;;;;;4096729;28;20126;-78
2021/01/25 02:48:07;;;;;;;40.13;22.88;;;-0.40;99.90;;;;;;4097899;28;20082;-78
2021/01/25 02:50:08;;;;;;;41.00;25.00;;;-0.40;99.90;;;;;;4097567;28;20050;-78
2021/01/25 02:52:10;;;;;;;40.53;24.92;;;-0.40;99.90;;;;;;4098923;28;20039;-78
2021/01/25 02:54:11;;;;;;;42.97;24.23;;;-0.40;99.90;;;;;;4098915;28;20027;-78
2021/01/25 02:56:12;;;;;;;39.33;24.95;;;-0.40;99.90;;;;;;4097872;28;20119;-78
2021/01/25 02:58:14;;;;;;;43.63;23.83;;;-0.40;99.90;;;;;;4097600;28;20419;-78
2021/01/25 03:00:16;;;;;;;40.45;23.55;;;-0.50;99.90;;;;;;4098941;28;20543;-78
2021/01/25 03:02:17;;;;;;;40.47;23.42;;;-0.50;99.90;;;;;;4097720;28;20031;-78
2021/01/25 03:04:17;;;;;;;42.03;24.13;;;-0.50;99.90;;;;;;4098732;28;20447;-78
2021/01/25 03:06:19;;;;;;;38.42;25.30;;;-0.50;99.90;;;;;;4099007;28;20059;-77
2021/01/25 03:08:20;;;;;;;43.58;24.30;;;-0.60;99.90;;;;;;4098989;28;20027;-77
2021/01/25 03:10:20;;;;;;;43.35;25.30;;;-0.60;99.90;;;;;;4097387;28;20042;-78
2021/01/25 03:12:23;;;;;;;40.05;24.52;;;-0.60;99.90;;;;;;4097420;28;20039;-78
2021/01/25 03:14:24;;;;;;;38.78;24.67;;;-0.70;99.90;;;;;;4098829;28;20035;-77
2021/01/25 03:16:25;;;;;;;44.10;25.77;;;-0.70;99.90;;;;;;4102011;28;20495;-78
2021/01/25 03:18:26;;;;;;;42.90;25.33;;;-0.70;99.90;;;;;;4107414;28;20027;-78
2021/01/25 03:20:26;;;;;;;48.50;27.17;;;-0.70;99.90;;;;;;4114546;28;20023;-78
2021/01/25 03:22:27;;;;;;;50.22;27.73;;;-0.70;99.90;;;;;;4114526;28;20414;-77
2021/01/25 03:24:28;;;;;;;46.35;27.00;;;-0.70;99.90;;;;;;4114916;28;20031;-78
2021/01/25 03:26:28;;;;;;;50.75;27.17;;;-0.80;99.90;;;;;;4113445;28;20047;-78
2021/01/25 03:28:29;;;;;;;53.13;28.50;;;-0.80;99.90;;;;;;4114450;28;20085;-76
2021/01/25 03:30:29;;;;;;;46.42;29.13;;;-0.80;99.90;;;;;;4114750;28;20027;-76
2021/01/25 03:32:30;;;;;;;54.20;29.77;;;-0.80;99.90;;;;;;4109866;28;20050;-76
2021/01/25 03:34:30;;;;;;;53.25;29.55;;;-0.80;99.90;;;;;;4120290;28;20035;-77
2021/01/25 03:36:31;;;;;;;54.60;30.83;;;-0.90;99.90;;;;;;4119279;28;20030;-77
2021/01/25 03:38:32;;;;;;;54.50;29.25;;;-0.90;99.90;;;;;;4117350;28;20141;-77
2021/01/25 03:40:34;;;;;;;54.10;30.80;;;-0.90;99.90;;;;;;4118229;28;20023;-77
2021/01/25 03:42:35;;;;;;;51.58;29.05;;;-0.90;99.90;;;;;;4118528;28;20046;-77
2021/01/25 03:44:36;;;;;;;57.30;30.00;;;-0.90;99.90;;;;;;4132427;28;20474;-77
2021/01/25 03:46:36;;;;;;;54.03;30.17;;;-0.90;99.90;;;;;;4119326;28;20042;-77
2021/01/25 03:48:37;;;;;;;56.50;29.98;;;-0.90;99.90;;;;;;4128568;28;20031;-77
2021/01/25 03:50:38;;;;;;;52.78;30.13;;;-0.90;99.90;;;;;;4112734;28;20386;-77
2021/01/25 03:52:38;;;;;;;60.85;30.83;;;-0.90;99.90;;;;;;4127607;28;20572;-77
2021/01/25 03:54:39;;;;;;;54.80;29.63;;;-0.90;99.90;;;;;;4111181;28;20103;-77
2021/01/25 03:56:40;;;;;;;57.60;33.28;;;-0.90;99.90;;;;;;4111859;28;20034;-77
2021/01/25 03:58:41;;;;;;;61.33;32.35;;;-0.90;99.90;;;;;;4127305;28;20430;-77
2021/01/25 04:00:42;;;;;;;64.18;34.42;;;-0.90;99.90;;;;;;4113830;28;20022;-77
2021/01/25 04:02:42;;;;;;;67.68;35.17;;;-0.90;99.90;;;;;;4114122;28;20077;-77
2021/01/25 04:04:43;;;;;;;65.90;33.38;;;-0.90;99.90;;;;;;4113465;28;20509;-77
2021/01/25 04:06:44;;;;;;;62.60;34.78;;;-0.90;99.90;;;;;;4112657;28;20364;-77
2021/01/25 04:08:45;;;;;;;61.63;31.90;;;-0.90;99.90;;;;;;4112487;28;20514;-77
2021/01/25 04:10:45;;;;;;;63.42;34.92;;;-0.90;99.90;;;;;;4112495;28;20395;-77
2021/01/25 04:12:46;;;;;;;61.17;33.60;;;-0.90;99.90;;;;;;4112518;28;20031;-77
2021/01/25 04:14:46;;;;;;;63.97;32.85;;;-0.90;99.90;;;;;;4112277;28;20117;-77
2021/01/25 04:16:47;;;;;;;61.53;33.35;;;-0.90;99.90;;;;;;4110674;28;20110;-77
2021/01/25 04:18:48;;;;;;;61.33;33.20;;;-0.90;99.90;;;;;;4110688;28;20343;-77
2021/01/25 04:20:48;;;;;;;61.20;33.65;;;-1.00;99.90;;;;;;4113703;28;20175;-77
2021/01/25 04:22:49;;;;;;;66.55;34.50;;;-1.00;99.90;;;;;;4144398;28;20497;-77
2021/01/25 04:24:50;;;;;;;69.35;33.65;;;-1.00;99.90;;;;;;4113770;28;20049;-77
2021/01/25 04:26:50;;;;;;;64.43;35.10;;;-1.10;99.90;;;;;;4113634;28;20159;-76
2021/01/25 04:28:52;;;;;;;61.13;32.83;;;-1.10;99.90;;;;;;4113601;28;20026;-77
2021/01/25 04:30:52;;;;;;;67.20;35.17;;;-1.10;99.90;;;;;;4112151;28;20038;-77
2021/01/25 04:32:53;;;;;;;64.88;34.30;;;-1.10;99.90;;;;;;4113734;28;20027;-78
2021/01/25 04:34:53;;;;;;;66.28;34.60;;;-1.10;99.90;;;;;;4113633;28;20041;-77
2021/01/25 04:36:54;;;;;;;63.58;32.80;;;-1.20;99.90;;;;;;4128366;28;20065;-77
2021/01/25 04:38:55;;;;;;;64.85;35.28;;;-1.20;99.90;;;;;;4113423;28;20474;-77
2021/01/25 04:40:55;;;;;;;72.15;34.78;;;-1.20;99.90;;;;;;4128032;28;20022;-78
2021/01/25 04:42:56;;;;;;;65.70;35.35;;;-1.20;99.90;;;;;;4113473;28;20018;-78
2021/01/25 04:44:58;;;;;;;69.43;35.97;;;-1.20;99.90;;;;;;4113817;28;20037;-78
2021/01/25 04:47:02;;;;;;;66.10;35.00;;;-1.20;99.90;;;;;;4113608;28;20043;-78
2021/01/25 04:49:03;;;;;;;72.25;38.35;;;-1.30;99.90;;;;;;4095372;28;20043;-78
2021/01/25 04:51:04;;;;;;;75.82;35.15;;;-1.30;99.90;;;;;;4111860;28;20657;-78
2021/01/25 04:53:06;;;;;;;69.07;37.22;;;-1.30;99.90;;;;;;4097255;28;20082;-78
2021/01/25 04:55:07;;;;;;;80.65;36.80;;;-1.30;99.90;;;;;;4083132;28;20028;-77
2021/01/25 04:57:10;;;;;;;77.88;37.95;;;-1.20;99.90;;;;;;4096213;28;20422;-78
2021/01/25 04:59:11;;;;;;;87.05;39.47;;;-1.20;99.90;;;;;;4096378;28;20026;-78
2021/01/25 05:01:12;;;;;;;75.30;40.13;;;-1.20;99.90;;;;;;4095221;28;20031;-77
2021/01/25 05:03:13;;;;;;;71.07;35.97;;;-1.20;99.90;;;;;;4095211;28;20118;-77
2021/01/25 05:05:13;;;;;;;69.07;34.47;;;-1.20;99.90;;;;;;4095859;28;20027;-77
2021/01/25 05:07:14;;;;;;;71.30;34.75;;;-1.30;99.90;;;;;;4096181;28;20455;-77
2021/01/25 05:09:14;;;;;;;72.53;36.55;;;-1.30;99.90;;;;;;4095524;28;20511;-78
2021/01/25 05:11:17;;;;;;;74.40;34.55;;;-1.40;99.90;;;;;;4095943;28;20114;-78
2021/01/25 05:13:24;;;;;;;76.70;38.17;;;-1.50;99.90;;;;;;4097325;28;20032;-77
2021/01/25 05:15:34;;;;;;;68.30;36.30;;;-1.50;99.90;;;;;;4097123;28;20122;-75
2021/01/25 05:17:36;;;;;;;68.15;33.15;;;-1.50;99.90;;;;;;4095981;28;20090;-77
2021/01/25 05:19:42;;;;;;;69.95;36.00;;;-1.50;99.90;;;;;;4094586;28;20483;-77
2021/01/25 05:21:44;;;;;;;83.13;37.08;;;-1.50;99.90;;;;;;4094684;28;20079;-77
2021/01/25 05:23:45;;;;;;;82.13;38.88;;;-1.50;99.90;;;;;;4095927;28;20031;-78
2021/01/25 05:25:46;;;;;;;83.60;38.28;;;-1.60;99.90;;;;;;4096036;28;20475;-78
2021/01/25 05:27:46;;;;;;;80.57;37.92;;;-1.60;99.90;;;;;;4097253;28;20074;-77
2021/01/25 05:29:47;;;;;;;77.95;39.08;;;-1.60;99.90;;;;;;4096868;28;20476;-77
2021/01/25 05:31:50;;;;;;;81.60;38.67;;;-1.60;99.90;;;;;;4096326;28;20043;-77
2021/01/25 05:33:52;;;;;;;82.63;38.53;;;-1.60;99.90;;;;;;4091446;28;20039;-77
2021/01/25 05:35:55;;;;;;;82.40;40.67;;;-1.60;99.90;;;;;;4096310;28;20027;-77
2021/01/25 05:38:04;;;;;;;76.95;37.88;;;-1.70;99.90;;;;;;4095675;28;20114;-78
2021/01/25 05:40:06;;;;;;;80.45;36.47;;;-1.70;99.90;;;;;;4094450;28;20458;-78
2021/01/25 05:42:06;;;;;;;84.07;41.20;;;-1.80;99.90;;;;;;4094086;28;20129;-77
2021/01/25 05:44:16;;;;;;;81.00;39.25;;;-1.80;99.90;;;;;;4092704;28;20087;-77
2021/01/25 05:46:19;;;;;;;77.70;38.15;;;-1.90;99.90;;;;;;4094934;28;20058;-77
2021/01/25 05:48:20;;;;;;;85.03;39.50;;;-2.00;99.90;;;;;;4094511;28;20483;-77
2021/01/25 05:50:27;;;;;;;80.93;35.97;;;-2.00;99.90;;;;;;4094930;28;20059;-77
2021/01/25 05:52:28;;;;;;;79.43;39.95;;;-2.00;99.90;;;;;;4096047;28;20031;-77
2021/01/25 05:54:29;;;;;;;81.75;39.13;;;-2.00;99.90;;;;;;4095472;28;20118;-78
2021/01/25 05:56:30;;;;;;;99.25;43.42;;;-2.00;99.90;;;;;;4094784;28;20170;-78
2021/01/25 05:58:30;;;;;;;88.22;40.78;;;-2.00;99.90;;;;;;4110565;28;20693;-78
2021/01/25 06:00:33;;;;;;;85.72;42.17;;;-2.00;99.90;;;;;;4095277;28;20388;-78
2021/01/25 06:02:36;;;;;;;82.85;40.40;;;-2.00;99.90;;;;;;4095378;28;20043;-78
2021/01/25 06:04:37;;;;;;;91.68;40.45;;;-2.00;99.90;;;;;;4095534;28;20031;-78
2021/01/25 06:06:38;;;;;;;84.68;41.45;;;-2.00;99.90;;;;;;4094956;28;20047;-78
2021/01/25 06:08:48;;;;;;;92.53;42.45;;;-2.00;99.90;;;;;;4096170;28;20054;-77
2021/01/25 06:10:58;;;;;;;93.80;41.42;;;-2.00;99.90;;;;;;4096575;28;20122;-77
2021/01/25 06:13:08;;;;;;;92.50;41.40;;;-1.90;99.90;;;;;;4095594;28;20069;-77
2021/01/25 06:15:16;;;;;;;90.25;41.60;;;-2.00;99.90;;;;;;4094857;28;20039;-77
2021/01/25 06:17:18;;;;;;;78.55;39.67;;;-2.00;99.90;;;;;;4096698;28;20035;-77
2021/01/25 06:19:22;;;;;;;86.88;40.42;;;-1.90;99.90;;;;;;4096778;28;20027;-77
2021/01/25 06:21:25;;;;;;;97.57;41.85;;;-2.00;99.90;;;;;;4096120;28;20117;-77
2021/01/25 06:23:27;;;;;;;84.50;43.20;;;-2.00;99.90;;;;;;4098138;28;20114;-77
2021/01/25 06:25:29;;;;;;;92.05;39.53;;;-2.00;99.90;;;;;;4098258;28;20032;-77
2021/01/25 06:27:30;;;;;;;91.45;43.03;;;-2.10;99.90;;;;;;4098419;28;20034;-77
2021/01/25 06:29:31;;;;;;;102.05;45.17;;;-2.10;99.90;;;;;;4098112;28;20031;-77
2021/01/25 06:31:37;;;;;;;91.28;42.42;;;-2.10;99.90;;;;;;4098067;28;20527;-78
2021/01/25 06:33:40;;;;;;;93.75;46.70;;;-2.10;99.90;;;;;;4091894;28;20379;-78
2021/01/25 06:35:41;;;;;;;101.50;46.22;;;-2.10;99.90;;;;;;4089901;28;20395;-78
2021/01/25 06:37:42;;;;;;;100.95;49.10;;;-2.10;99.90;;;;;;4098531;28;20062;-78
2021/01/25 06:39:45;;;;;;;91.63;43.50;;;-2.10;99.90;;;;;;4099393;28;20105;-78
2021/01/25 06:41:46;;;;;;;94.55;43.33;;;-2.10;99.90;;;;;;4097974;28;20042;-78
2021/01/25 06:43:49;;;;;;;95.18;43.53;;;-2.10;99.90;;;;;;4099770;28;20103;-77
2021/01/25 06:45:49;;;;;;;97.43;42.95;;;-2.00;99.90;;;;;;4101402;28;20126;-77
2021/01/25 06:47:51;;;;;;;101.70;44.20;;;-2.00;99.90;;;;;;4102372;28;20038;-77
2021/01/25 06:49:52;;;;;;;96.57;43.67;;;-2.00;99.90;;;;;;4098791;28;20079;-77
2021/01/25 06:51:54;;;;;;;89.30;40.92;;;-2.00;99.90;;;;;;4098386;28;20170;-77
2021/01/25 06:53:59;;;;;;;97.30;42.50;;;-2.10;99.90;;;;;;4099748;28;20790;-77
2021/01/25 06:56:01;;;;;;;90.00;41.80;;;-2.10;99.90;;;;;;4099399;28;20034;-77
2021/01/25 06:58:05;;;;;;;87.97;41.63;;;-2.10;99.90;;;;;;4098564;28;20019;-77
2021/01/25 07:00:08;;;;;;;102.38;43.67;;;-2.20;99.90;;;;;;4101566;28;20030;-77
2021/01/25 07:02:10;;;;;;;84.55;41.33;;;-2.30;99.90;;;;;;4101246;28;20537;-77
2021/01/25 07:04:14;;;;;;;95.75;40.28;;;-2.30;99.90;;;;;;4100534;28;20031;-77
2021/01/25 07:06:15;;;;;;;87.47;40.83;;;-2.40;99.90;;;;;;4106596;28;20767;-77
2021/01/25 07:08:20;;;;;;;87.88;39.92;;;-2.50;99.90;;;;;;4095115;28;20043;-77
2021/01/25 07:10:21;;;;;;;85.97;39.35;;;-2.60;99.90;;;;;;4108699;28;20066;-77
2021/01/25 07:12:24;;;;;;;78.10;38.00;;;-2.70;99.90;;;;;;4110002;28;20043;-77
2021/01/25 07:14:27;;;;;;;95.35;41.08;;;-2.70;99.90;;;;;;4108496;28;20026;-77
2021/01/25 07:16:28;;;;;;;89.03;39.72;;;-2.80;99.90;;;;;;4107856;28;20023;-77
2021/01/25 07:18:30;;;;;;;92.63;40.78;;;-2.80;99.90;;;;;;4105141;28;20522;-77
2021/01/25 07:20:31;;;;;;;98.60;42.75;;;-2.80;99.90;;;;;;4106458;28;20019;-77
2021/01/25 07:22:35;;;;;;;92.07;42.17;;;-2.80;99.90;;;;;;4104349;28;20502;-76
2021/01/25 07:24:38;;;;;;;98.28;41.00;;;-2.80;99.90;;;;;;4096281;28;20070;-77
2021/01/25 07:26:39;;;;;;;99.70;41.38;;;-2.80;99.90;;;;;;4100085;28;20497;-77
2021/01/25 07:28:41;;;;;;;91.15;40.90;;;-2.80;99.90;;;;;;4100444;28;20054;-77
2021/01/25 07:30:42;;;;;;;100.17;42.33;;;-2.80;99.90;;;;;;4100516;28;20119;-77
2021/01/25 07:32:46;;;;;;;100.15;42.38;;;-2.80;99.90;;;;;;4097914;28;20031;-77
2021/01/25 07:34:47;;;;;;;;;;;-2.80;99.90;;;;;;4102942;28;20050;-76
2021/01/25 07:36:47;;;;;;;89.93;39.35;;;-2.80;99.90;;;;;;4104646;28;19910;-77
2021/01/25 07:38:48;;;;;;;101.50;41.28;;;-2.80;99.90;;;;;;4104506;28;20030;-78
2021/01/25 07:40:50;;;;;;;91.78;40.00;;;-2.80;99.90;;;;;;4103914;28;20035;-77
2021/01/25 07:42:52;;;;;;;96.00;42.13;;;-2.80;99.90;;;;;;4105671;28;20023;-77
2021/01/25 07:44:54;;;;;;;96.50;39.88;;;-2.70;99.90;;;;;;4105813;28;20027;-77
2021/01/25 07:47:03;;;;;;;99.88;39.90;;;-2.60;99.90;;;;;;4096584;28;20035;-77
2021/01/25 07:49:04;;;;;;;85.07;40.83;;;-2.50;99.90;;;;;;4095513;28;20046;-77
2021/01/25 07:51:05;;;;;;;103.03;39.80;;;-2.40;99.90;;;;;;4099227;28;20114;-78
2021/01/25 07:53:07;;;;;;;91.28;42.63;;;-2.40;99.90;;;;;;4097066;28;20038;-77
2021/01/25 07:55:15;;;;;;;98.75;46.17;;;-2.40;99.90;;;;;;4098172;28;20038;-77
2021/01/25 07:57:24;;;;;;;104.20;48.38;;;-2.40;99.90;;;;;;4094682;28;20043;-78
2021/01/25 07:59:32;;;;;;;102.80;46.10;;;-2.40;99.90;;;;;;4086741;28;20489;-77
2021/01/25 08:01:55;;;;;;;108.68;45.88;;;-2.40;99.90;;;;;;4090516;28;20036;-77
2021/01/25 08:04:01;;;;;;;102.63;48.15;;;-2.50;99.90;;;;;;4090632;28;20043;-77
2021/01/25 08:06:04;;;;;;;104.07;48.60;;;-2.50;99.90;;;;;;4106349;28;20048;-77
2021/01/25 08:08:09;;;;;;;104.20;46.10;;;-2.50;99.90;;;;;;4144154;28;20469;-76
2021/01/25 08:10:11;;;;;;;106.88;45.05;;;-2.50;99.90;;;;;;4117751;28;20374;-76
2021/01/25 08:12:15;;;;;;;99.00;44.50;;;-2.40;99.90;;;;;;4114647;28;20018;-77
2021/01/25 08:14:23;;;;;;;102.93;45.05;;;-2.40;99.90;;;;;;4114997;28;20122;-77
2021/01/25 08:16:29;;;;;;;103.10;47.63;;;-2.40;99.90;;;;;;4110268;28;20027;-77
2021/01/25 08:18:38;;;;;;;111.32;48.53;;;-2.30;99.90;;;;;;4113303;28;20386;-77
2021/01/25 08:20:39;;;;;;;98.82;42.80;;;-2.30;99.90;;;;;;4113033;28;20458;-77
2021/01/25 08:23:03;;;;;;;106.53;44.58;;;-2.30;99.90;;;;;;4113777;28;20528;-77
2021/01/25 08:25:04;;;;;;;93.05;42.20;;;-2.30;99.90;;;;;;4140703;28;20130;-76
2021/01/25 08:27:17;;;;;;;103.07;45.67;;;-2.20;99.90;;;;;;4118396;28;20117;-77
2021/01/25 08:29:26;;;;;;;98.38;43.38;;;-2.20;99.90;;;;;;4117227;28;20041;-76
2021/01/25 08:31:37;;;;;;;98.45;42.65;;;-2.20;99.90;;;;;;4120593;28;20062;-76
2021/01/25 08:33:41;;;;;;;113.57;48.97;;;-2.20;99.90;;;;;;4113762;28;20043;-77
2021/01/25 08:35:50;;;;;;;115.57;52.40;;;-2.20;99.90;;;;;;4121329;28;20445;-77
2021/01/25 08:37:51;;;;;;;115.75;51.15;;;-2.10;99.90;;;;;;4125516;28;20034;-77
2021/01/25 08:39:52;;;;;;;107.03;51.35;;;-2.10;99.90;;;;;;4119700;28;20149;-77
2021/01/25 08:41:55;;;;;;;96.40;45.67;;;-2.00;99.90;;;;;;4117329;28;20027;-76
2021/01/25 08:43:59;;;;;;;103.70;48.60;;;-1.90;99.90;;;;;;4126468;28;20498;-76
2021/01/25 08:46:15;;;;;;;103.13;46.80;;;-1.90;99.90;;;;;;4120254;28;20034;-76
2021/01/25 08:48:25;;;;;;;103.90;46.03;;;-1.80;99.90;;;;;;4125052;28;20111;-76
2021/01/25 08:50:27;;;;;;;104.75;47.50;;;-1.70;99.90;;;;;;4118295;28;20129;-76
2021/01/25 08:52:39;;;;;;;99.63;46.35;;;-1.60;99.90;;;;;;4117031;28;20031;-77
2021/01/25 08:54:40;;;;;;;95.40;44.45;;;-1.60;99.90;;;;;;4116666;28;20364;-77
2021/01/25 08:56:41;;;;;;;97.38;43.92;;;-1.50;99.90;;;;;;4104045;28;20031;-76
2021/01/25 08:58:42;;;;;;;92.55;45.70;;;-1.40;99.90;;;;;;4108096;28;20027;-76
2021/01/25 09:00:43;;;;;;;101.43;46.97;;;-1.40;99.90;;;;;;4105231;28;20463;-76
2021/01/25 09:02:45;;;;;;;98.50;46.20;;;-1.30;99.90;;;;;;4105049;28;20031;-76
2021/01/25 09:04:50;;;;;;;92.40;44.40;;;-1.30;99.90;;;;;;4096631;28;20046;-77
2021/01/25 09:06:52;;;;;;;89.00;43.95;;;-1.30;99.90;;;;;;4104346;28;20058;-76
2021/01/25 09:08:53;;;;;;;96.88;44.25;;;-1.30;99.90;;;;;;4106170;28;20056;-77
2021/01/25 09:10:54;;;;;;;87.85;43.38;;;-1.20;99.90;;;;;;4104513;28;20184;-77
2021/01/25 09:12:54;;;;;;;94.72;43.53;;;-1.10;99.90;;;;;;4092731;28;20031;-76
2021/01/25 09:14:55;;;;;;;81.45;42.30;;;-1.10;99.90;;;;;;4097100;28;20027;-76
2021/01/25 09:16:56;;;;;;;79.18;39.35;;;-1.00;99.90;;;;;;4112391;28;20035;-77
2021/01/25 09:18:56;;;;;;;96.00;45.35;;;-1.00;99.90;;;;;;4097029;28;20027;-77
2021/01/25 09:20:57;;;;;;;83.55;44.20;;;-0.90;99.90;;;;;;4097404;28;20039;-77
2021/01/25 09:22:59;;;;;;;91.10;42.55;;;-0.90;99.90;;;;;;4111364;28;20043;-77
2021/01/25 09:25:00;;;;;;;82.63;42.20;;;-0.70;99.90;;;;;;4138062;28;20029;-77
2021/01/25 09:27:01;;;;;;;86.43;42.38;;;-0.60;99.90;;;;;;4124908;28;20089;-77
2021/01/25 09:29:02;;;;;;;89.10;42.90;;;-0.60;99.90;;;;;;4123330;28;20657;-77
2021/01/25 09:31:03;;;;;;;90.63;44.88;;;-0.40;99.90;;;;;;4130702;28;20089;-77
2021/01/25 09:33:05;;;;;;;84.95;43.08;;;-0.40;99.90;;;;;;4111865;28;20031;-78
2021/01/25 09:35:08;;;;;;;96.35;45.10;;;-0.30;99.90;;;;;;4111346;28;20110;-76
2021/01/25 09:37:09;;;;;;;93.55;44.60;;;-0.30;99.90;;;;;;4121111;28;20126;-77
2021/01/25 09:39:13;;;;;;;93.32;45.30;;;-0.20;99.90;;;;;;4135225;28;20045;-77
2021/01/25 09:41:13;;;;;;;96.00;44.53;;;-0.10;99.90;;;;;;4118923;28;20029;-77
2021/01/25 09:43:14;;;;;;;90.57;47.53;;;-0.10;99.90;;;;;;4113719;28;20023;-77
2021/01/25 09:45:17;;;;;;;89.40;46.55;;;0.00;99.90;;;;;;4119605;28;20066;-76
2021/01/25 09:47:18;;;;;;;;;;;0.00;99.90;;;;;;4119140;28;20031;-77
2021/01/25 09:49:21;;;;;;;86.38;38.10;;;0.20;99.90;;;;;;4109096;28;20028;-77
2021/01/25 09:51:22;;;;;;;90.35;43.22;;;0.20;99.90;;;;;;4124426;28;21537;-78
2021/01/25 09:53:22;;;;;;;92.40;43.03;;;0.30;99.90;;;;;;4116840;28;20054;-77
2021/01/25 09:55:23;;;;;;;83.22;40.38;;;0.40;99.90;;;;;;4116971;28;20042;-77
2021/01/25 09:57:23;;;;;;;80.60;41.38;;;0.40;99.90;;;;;;4121527;28;20097;-77
2021/01/25 09:59:24;;;;;;;77.65;41.10;;;0.50;99.90;;;;;;4124248;28;20045;-77
2021/01/25 10:01:25;;;;;;;73.38;38.42;;;0.60;99.90;;;;;;4123853;28;20049;-78
2021/01/25 10:03:25;;;;;;;73.88;37.35;;;0.60;99.90;;;;;;4125842;28;20042;-78
2021/01/25 10:05:26;;;;;;;62.58;34.08;;;0.70;99.90;;;;;;4116803;28;20084;-77
2021/01/25 10:07:28;;;;;;;73.45;35.75;;;0.80;99.90;;;;;;4119749;28;20034;-78
2021/01/25 10:09:30;;;;;;;67.18;36.50;;;0.90;99.90;;;;;;4124769;28;20038;-79
2021/01/25 10:11:31;;;;;;;68.43;35.38;;;1.00;99.90;;;;;;4128001;28;20057;-78
2021/01/25 10:13:33;;;;;;;54.80;32.58;;;1.00;99.90;;;;;;4127843;28;20027;-78
2021/01/25 10:15:34;;;;;;;60.28;33.35;;;1.10;99.90;;;;;;4124942;28;20062;-78
2021/01/25 10:17:34;;;;;;;53.25;31.02;;;1.20;99.90;;;;;;4128187;28;20108;-78
2021/01/25 10:19:35;;;;;;;52.38;31.00;;;1.30;99.90;;;;;;4143015;28;20489;-78
2021/01/25 10:21:36;;;;;;;51.85;29.30;;;1.40;99.90;;;;;;4123715;28;20037;-76